Time;durP1;ratioP1;P1;durP2;ratioP2;P2;SDS_P1;SDS_P2;PMS_P1;PMS_P2;Temp;Humidity;BMP_temperature;BMP_pressure;BME280_temperature;BME280_humidity;BME280_pressure;Samples;Min_cycle;Max_cycle;Signal;HPM_P1;HPM_P2
2021/05/03 00:01:51;;;;;;;5.60;1.80;;;;;;;;;;5071719;28;20028;-74
2021/05/03 00:04:17;;;;;;;3.08;1.58;;;;;;;;;;5086668;28;20020;-74
2021/05/03 00:06:43;;;;;;;1.88;1.33;;;;;;;;;;5091155;28;20386;-74
2021/05/03 00:09:09;;;;;;;5.63;1.73;;;;;;;;;;5078138;28;20020;-74
2021/05/03 00:11:35;;;;;;;2.80;1.45;;;;;;;;;;5080411;28;20035;-73
2021/05/03 00:14:02;;;;;;;4.57;2.00;;;;;;;;;;5073466;28;20049;-73
2021/05/03 00:16:27;;;;;;;3.40;1.70;;;;;;;;;;5087307;28;20154;-73
2021/05/03 00:18:54;;;;;;;4.18;1.80;;;;;;;;;;5089483;28;20107;-75
2021/05/03 00:21:20;;;;;;;2.97;1.70;;;;;;;;;;5088812;28;20031;-73
2021/05/03 00:23:46;;;;;;;2.00;1.30;;;;;;;;;;5077533;28;20513;-75
2021/05/03 00:26:12;;;;;;;6.95;1.70;;;;;;;;;;5084055;28;20293;-72
2021/05/03 00:28:38;;;;;;;4.63;1.50;;;;;;;;;;5087813;28;20470;-74
2021/05/03 00:31:05;;;;;;;2.60;1.40;;;;;;;;;;5089432;28;20024;-74
2021/05/03 00:33:31;;;;;;;2.17;1.48;;;;;;;;;;5079933;28;20053;-75
2021/05/03 00:35:57;;;;;;;3.57;1.40;;;;;;;;;;5077358;28;20492;-74
2021/05/03 00:38:23;;;;;;;3.25;1.52;;;;;;;;;;5081768;28;20283;-74
2021/05/03 00:40:49;;;;;;;2.17;1.45;;;;;;;;;;5081395;28;20545;-74
2021/05/03 00:43:20;;;;;;;2.38;1.40;;;;;;;;;;5072148;28;20174;-74
2021/05/03 00:45:50;;;;;;;3.25;1.50;;;;;;;;;;5070719;28;20394;-75
2021/05/03 00:48:16;;;;;;;2.42;1.48;;;;;;;;;;5077875;28;20093;-74
2021/05/03 00:50:43;;;;;;;2.95;1.33;;;;;;;;;;5088772;28;20031;-73
2021/05/03 00:53:09;;;;;;;2.63;1.35;;;;;;;;;;5088384;28;20032;-74
2021/05/03 00:55:35;;;;;;;1.38;1.27;;;;;;;;;;5070392;28;20140;-74
2021/05/03 00:58:03;;;;;;;1.80;1.42;;;;;;;;;;5074462;28;20039;-74
2021/05/03 01:00:29;;;;;;;1.70;1.30;;;;;;;;;;5070444;28;20051;-75
2021/05/03 01:02:55;;;;;;;1.60;1.38;;;;;;;;;;5087841;28;20036;-74
2021/05/03 01:05:21;;;;;;;2.78;1.50;;;;;;;;;;5088986;28;20035;-72
2021/05/03 01:07:48;;;;;;;2.15;1.50;;;;;;;;;;5073907;28;20024;-74
2021/05/03 01:10:14;;;;;;;2.15;1.50;;;;;;;;;;5089349;28;20123;-74
2021/05/03 01:12:40;;;;;;;2.03;1.33;;;;;;;;;;5084928;28;20035;-72
2021/05/03 01:15:07;;;;;;;1.92;1.50;;;;;;;;;;5080144;28;20537;-75
2021/05/03 01:17:34;;;;;;;1.73;1.40;;;;;;;;;;5075086;28;20040;-74
2021/05/03 01:20:10;;;;;;;1.67;1.30;;;;;;;;;;5074251;28;20604;-73
2021/05/03 01:22:36;;;;;;;3.25;1.50;;;;;;;;;;5086815;28;20032;-75
2021/05/03 01:25:03;;;;;;;1.90;1.30;;;;;;;;;;5077878;28;20498;-74
2021/05/03 01:27:29;;;;;;;1.63;1.38;;;;;;;;;;5083021;28;20382;-73
2021/05/03 01:29:55;;;;;;;3.53;1.40;;;;;;;;;;5069594;28;20028;-74
2021/05/03 01:32:21;;;;;;;1.65;1.25;;;;;;;;;;5070019;28;20036;-72
2021/05/03 01:34:47;;;;;;;4.10;1.30;;;;;;;;;;5088587;28;20454;-74
2021/05/03 01:37:14;;;;;;;2.67;1.40;;;;;;;;;;5074595;28;20066;-74
2021/05/03 01:39:40;;;;;;;1.20;1.10;;;;;;;;;;5086144;28;20028;-74
2021/05/03 01:42:06;;;;;;;5.10;1.40;;;;;;;;;;5088618;28;20584;-73
2021/05/03 01:44:32;;;;;;;1.73;1.30;;;;;;;;;;5087988;28;20024;-73
2021/05/03 01:46:58;;;;;;;3.72;1.60;;;;;;;;;;5080424;28;20286;-74
2021/05/03 01:49:26;;;;;;;2.92;1.15;;;;;;;;;;5085342;28;20020;-74
2021/05/03 01:51:53;;;;;;;2.83;1.20;;;;;;;;;;5069737;28;20028;-73
2021/05/03 01:54:19;;;;;;;4.00;1.75;;;;;;;;;;5074907;28;20031;-73
2021/05/03 01:56:45;;;;;;;2.90;1.50;;;;;;;;;;5088359;28;20040;-73
2021/05/03 01:59:14;;;;;;;2.33;1.40;;;;;;;;;;5089446;28;20107;-76
2021/05/03 02:01:40;;;;;;;3.70;1.38;;;;;;;;;;5072181;28;20021;-73
2021/05/03 02:04:07;;;;;;;1.98;1.38;;;;;;;;;;5069531;28;20120;-75
2021/05/03 02:06:33;;;;;;;3.70;1.27;;;;;;;;;;5071765;28;20021;-73
2021/05/03 02:09:04;;;;;;;2.63;1.38;;;;;;;;;;5078815;28;20047;-75
2021/05/03 02:11:30;;;;;;;1.65;1.08;;;;;;;;;;5081234;28;20016;-74
2021/05/03 02:13:56;;;;;;;3.72;1.20;;;;;;;;;;5086745;28;20047;-74
2021/05/03 02:16:22;;;;;;;2.00;1.17;;;;;;;;;;5082875;28;20082;-74
2021/05/03 02:18:48;;;;;;;4.00;1.25;;;;;;;;;;5087974;28;20607;-75
2021/05/03 02:21:14;;;;;;;2.40;1.40;;;;;;;;;;5092042;28;20503;-75
2021/05/03 02:23:40;;;;;;;3.38;1.30;;;;;;;;;;5093014;28;20583;-75
2021/05/03 02:26:06;;;;;;;1.83;1.50;;;;;;;;;;5093119;28;20039;-75
2021/05/03 02:28:32;;;;;;;2.03;1.30;;;;;;;;;;5091969;28;20553;-73
2021/05/03 02:30:58;;;;;;;1.45;1.35;;;;;;;;;;5083845;28;20032;-75
2021/05/03 02:33:24;;;;;;;1.85;1.27;;;;;;;;;;5091334;28;20054;-75
2021/05/03 02:35:50;;;;;;;1.48;1.23;;;;;;;;;;5092372;28;20030;-74
2021/05/03 02:38:16;;;;;;;1.77;1.38;;;;;;;;;;5091478;28;20088;-75
2021/05/03 02:40:42;;;;;;;2.30;1.20;;;;;;;;;;5081711;28;20035;-74
2021/05/03 02:43:08;;;;;;;2.20;1.50;;;;;;;;;;5092741;28;20024;-74
2021/05/03 02:45:35;;;;;;;2.58;1.30;;;;;;;;;;5091194;28;20090;-73
2021/05/03 02:48:01;;;;;;;1.80;1.27;;;;;;;;;;5090113;28;20031;-74
2021/05/03 02:50:28;;;;;;;1.60;1.15;;;;;;;;;;5092252;28;20118;-73
2021/05/03 02:52:54;;;;;;;1.40;1.30;;;;;;;;;;5081850;28;20070;-74
2021/05/03 02:55:21;;;;;;;2.67;1.70;;;;;;;;;;5091312;28;20055;-74
2021/05/03 02:57:48;;;;;;;6.50;1.77;;;;;;;;;;5089519;28;20036;-73
2021/05/03 03:00:14;;;;;;;;;;;;;;;;;;5091565;28;20051;-73
2021/05/03 03:02:40;;;;;;;2.42;1.10;;;;;;;;;;5081148;28;20347;-73
2021/05/03 03:05:07;;;;;;;2.58;1.10;;;;;;;;;;5072880;28;20079;-73
2021/05/03 03:07:33;;;;;;;2.88;1.10;;;;;;;;;;5086268;28;20028;-73
2021/05/03 03:09:59;;;;;;;2.05;1.17;;;;;;;;;;5090795;28;20146;-73
2021/05/03 03:12:25;;;;;;;3.25;1.33;;;;;;;;;;5089587;28;20500;-75
2021/05/03 03:14:51;;;;;;;1.10;1.10;;;;;;;;;;5091074;28;20020;-74
2021/05/03 03:17:17;;;;;;;1.42;1.20;;;;;;;;;;5090540;28;20101;-75
2021/05/03 03:19:43;;;;;;;1.65;1.15;;;;;;;;;;5086019;28;20149;-74
2021/05/03 03:22:09;;;;;;;5.13;1.10;;;;;;;;;;5089977;28;20027;-73
2021/05/03 03:24:36;;;;;;;2.65;1.20;;;;;;;;;;5074734;28;20032;-74
2021/05/03 03:27:02;;;;;;;3.83;1.30;;;;;;;;;;5072615;28;20410;-73
2021/05/03 03:29:28;;;;;;;3.03;1.38;;;;;;;;;;5088228;28;20042;-73
2021/05/03 03:31:55;;;;;;;2.92;1.35;;;;;;;;;;5071065;28;20033;-74
2021/05/03 03:34:21;;;;;;;1.48;1.15;;;;;;;;;;5072415;28;20024;-73
2021/05/03 03:36:47;;;;;;;2.17;1.25;;;;;;;;;;5083770;28;20117;-75
2021/05/03 03:39:13;;;;;;;1.15;1.13;;;;;;;;;;5089401;28;20035;-74
2021/05/03 03:41:39;;;;;;;2.90;1.30;;;;;;;;;;5090228;28;20050;-75
2021/05/03 03:44:05;;;;;;;1.03;1.03;;;;;;;;;;5091574;28;20020;-75
2021/05/03 03:46:31;;;;;;;1.23;1.10;;;;;;;;;;5091421;28;20056;-74
2021/05/03 03:48:57;;;;;;;1.23;1.13;;;;;;;;;;5090770;28;20634;-74
2021/05/03 03:51:24;;;;;;;1.33;1.20;;;;;;;;;;5089361;28;20534;-74
2021/05/03 03:53:50;;;;;;;1.10;1.05;;;;;;;;;;5090362;28;20103;-76
2021/05/03 03:56:17;;;;;;;1.13;1.00;;;;;;;;;;5088326;28;20042;-73
2021/05/03 03:58:44;;;;;;;1.40;1.10;;;;;;;;;;5075331;28;20119;-74
2021/05/03 04:01:11;;;;;;;2.03;1.17;;;;;;;;;;5076012;28;20025;-75
2021/05/03 04:03:46;;;;;;;2.35;1.10;;;;;;;;;;5090518;28;20065;-75
2021/05/03 04:08:54;;;;;;;1.25;1.13;;;;;;;;;;5089635;28;20040;-73
2021/05/03 04:22:39;;;;;;;2.25;1.13;;;;;;;;;;5072169;28;20579;-73
2021/05/03 04:27:35;;;;;;;1.58;1.30;;;;;;;;;;5071171;28;20532;-73
2021/05/03 04:30:01;;;;;;;5.03;2.60;;;;;;;;;;5070076;28;20016;-73
2021/05/03 04:32:27;;;;;;;4.50;1.30;;;;;;;;;;5088744;28;20039;-72
2021/05/03 04:34:53;;;;;;;2.27;1.00;;;;;;;;;;5080035;28;20362;-72
2021/05/03 04:37:19;;;;;;;1.23;1.13;;;;;;;;;;5081596;28;20320;-73
2021/05/03 04:39:45;;;;;;;2.25;1.13;;;;;;;;;;5078107;28;20050;-73
2021/05/03 04:42:11;;;;;;;1.30;1.17;;;;;;;;;;5084195;28;20806;-71
2021/05/03 04:44:37;;;;;;;3.00;1.33;;;;;;;;;;5089450;28;20036;-73
2021/05/03 04:47:03;;;;;;;1.20;1.00;;;;;;;;;;5090504;28;20032;-72
2021/05/03 04:49:29;;;;;;;1.30;0.80;;;;;;;;;;5076406;28;20285;-71
2021/05/03 04:51:55;;;;;;;1.87;1.10;;;;;;;;;;5087842;28;20274;-72
2021/05/03 04:54:21;;;;;;;3.05;1.15;;;;;;;;;;5089681;28;20070;-72
2021/05/03 04:56:47;;;;;;;2.78;1.17;;;;;;;;;;5089271;28;20043;-72
2021/05/03 04:59:13;;;;;;;1.20;1.10;;;;;;;;;;5086897;28;20020;-72
2021/05/03 05:01:39;;;;;;;1.47;1.37;;;;;;;;;;5078878;28;20258;-72
2021/05/03 05:04:05;;;;;;;4.00;1.40;;;;;;;;;;5078801;28;20843;-71
2021/05/03 05:06:31;;;;;;;2.15;1.45;;;;;;;;;;5076235;28;20143;-75
2021/05/03 05:08:57;;;;;;;2.87;1.27;;;;;;;;;;5070598;28;20111;-74
2021/05/03 05:11:23;;;;;;;1.48;1.20;;;;;;;;;;5093258;28;20107;-73
2021/05/03 05:13:49;;;;;;;3.27;1.20;;;;;;;;;;5096381;28;20119;-74
2021/05/03 05:16:15;;;;;;;4.05;1.27;;;;;;;;;;5093896;28;20265;-75
2021/05/03 05:18:41;;;;;;;1.40;1.30;;;;;;;;;;5096843;28;20119;-73
2021/05/03 05:21:07;;;;;;;1.23;1.08;;;;;;;;;;5098116;28;20034;-74
2021/05/03 05:23:33;;;;;;;4.45;1.50;;;;;;;;;;5094233;28;20039;-73
2021/05/03 05:25:59;;;;;;;3.10;1.30;;;;;;;;;;5094667;28;20032;-74
2021/05/03 05:28:25;;;;;;;5.88;2.03;;;;;;;;;;5085188;28;20058;-73
2021/05/03 05:30:51;;;;;;;11.65;1.70;;;;;;;;;;5073261;28;20020;-77
2021/05/03 05:33:17;;;;;;;2.78;1.00;;;;;;;;;;5077159;28;20024;-74
2021/05/03 05:35:43;;;;;;;2.08;1.42;;;;;;;;;;5089315;28;20031;-75
2021/05/03 05:38:09;;;;;;;4.45;1.30;;;;;;;;;;5070865;28;20032;-75
2021/05/03 05:40:35;;;;;;;1.95;1.42;;;;;;;;;;5079701;28;20048;-75
2021/05/03 05:43:04;;;;;;;3.58;1.30;;;;;;;;;;5074878;28;20024;-75
2021/05/03 05:45:30;;;;;;;2.60;1.20;;;;;;;;;;5069511;28;20048;-75
2021/05/03 05:47:56;;;;;;;1.48;1.38;;;;;;;;;;5069400;28;20026;-74
2021/05/03 05:50:22;;;;;;;1.52;1.40;;;;;;;;;;5070528;28;20568;-74
2021/05/03 05:52:48;;;;;;;3.63;1.42;;;;;;;;;;5070480;28;20025;-74
2021/05/03 05:55:14;;;;;;;3.78;1.48;;;;;;;;;;5069589;28;20117;-75
2021/05/03 05:57:40;;;;;;;2.03;1.35;;;;;;;;;;5070155;28;20040;-73
2021/05/03 06:00:06;;;;;;;3.53;1.42;;;;;;;;;;5070344;28;20586;-75
2021/05/03 06:02:32;;;;;;;4.00;1.67;;;;;;;;;;5070274;28;20036;-75
2021/05/03 06:04:58;;;;;;;3.95;1.60;;;;;;;;;;5070269;28;20020;-75
2021/05/03 06:07:24;;;;;;;3.70;1.80;;;;;;;;;;5078267;28;20037;-75
2021/05/03 06:09:50;;;;;;;5.30;1.60;;;;;;;;;;5074085;28;20058;-75
2021/05/03 06:12:16;;;;;;;4.50;1.60;;;;;;;;;;5088006;28;20262;-75
2021/05/03 06:14:42;;;;;;;2.90;1.60;;;;;;;;;;5090356;28;20020;-77
2021/05/03 06:17:09;;;;;;;3.17;1.70;;;;;;;;;;5075781;28;20587;-76
2021/05/03 06:19:35;;;;;;;4.85;1.58;;;;;;;;;;5083925;28;20446;-79
2021/05/03 06:22:01;;;;;;;2.77;1.53;;;;;;;;;;5090407;28;20066;-79
2021/05/03 06:24:27;;;;;;;1.50;1.40;;;;;;;;;;5090326;28;20028;-79
2021/05/03 06:26:53;;;;;;;1.33;1.17;;;;;;;;;;5088775;28;20365;-78
2021/05/03 06:29:19;;;;;;;3.50;2.00;;;;;;;;;;5084888;28;20024;-79
2021/05/03 06:31:47;;;;;;;2.53;1.80;;;;;;;;;;5072920;28;20063;-76
2021/05/03 06:34:13;;;;;;;2.17;1.60;;;;;;;;;;5069728;28;20021;-77
2021/05/03 06:36:39;;;;;;;2.20;1.60;;;;;;;;;;5070501;28;20489;-77
2021/05/03 06:39:05;;;;;;;2.43;1.67;;;;;;;;;;5076405;28;20108;-74
2021/05/03 06:41:31;;;;;;;4.10;1.77;;;;;;;;;;5090126;28;20095;-74
2021/05/03 06:43:57;;;;;;;2.13;1.70;;;;;;;;;;5077641;28;20119;-77
2021/05/03 06:46:23;;;;;;;1.95;1.70;;;;;;;;;;5081441;28;20052;-75
2021/05/03 06:48:49;;;;;;;5.05;1.92;;;;;;;;;;5095656;28;20078;-76
2021/05/03 06:51:15;;;;;;;3.53;2.05;;;;;;;;;;5108935;28;20023;-76
2021/05/03 06:53:41;;;;;;;3.93;2.17;;;;;;;;;;5109956;28;20020;-76
2021/05/03 06:56:07;;;;;;;2.47;2.00;;;;;;;;;;5108692;28;20419;-77
2021/05/03 06:58:33;;;;;;;3.27;2.00;;;;;;;;;;5109669;27;20043;-76
2021/05/03 07:00:59;;;;;;;2.33;2.10;;;;;;;;;;5110252;28;20024;-77
2021/05/03 07:03:25;;;;;;;3.10;2.08;;;;;;;;;;5110165;28;20028;-76
2021/05/03 07:05:51;;;;;;;1.97;1.73;;;;;;;;;;5110641;28;20027;-77
2021/05/03 07:08:22;;;;;;;2.50;1.95;;;;;;;;;;5112870;28;20031;-76
2021/05/03 07:10:48;;;;;;;5.57;2.03;;;;;;;;;;5114587;28;20382;-77
2021/05/03 07:13:15;;;;;;;3.45;1.90;;;;;;;;;;5114406;28;20022;-76
2021/05/03 07:15:41;;;;;;;3.83;2.15;;;;;;;;;;5114140;28;20078;-77
2021/05/03 07:18:07;;;;;;;2.78;2.05;;;;;;;;;;5114029;27;20068;-76
2021/05/03 07:20:33;;;;;;;3.38;2.35;;;;;;;;;;5112570;28;20082;-76
2021/05/03 07:23:00;;;;;;;3.65;2.08;;;;;;;;;;5112752;28;20020;-77
2021/05/03 07:25:26;;;;;;;5.55;2.10;;;;;;;;;;5113937;28;20024;-76
2021/05/03 07:27:52;;;;;;;3.90;1.95;;;;;;;;;;5112710;27;20024;-78
2021/05/03 07:30:18;;;;;;;2.28;1.98;;;;;;;;;;5112926;28;20065;-78
2021/05/03 07:32:44;;;;;;;2.38;1.92;;;;;;;;;;5112312;28;20019;-78
2021/05/03 07:35:12;;;;;;;3.92;2.10;;;;;;;;;;5113937;28;20103;-78
2021/05/03 07:37:40;;;;;;;3.20;2.05;;;;;;;;;;5113683;27;20040;-77
2021/05/03 07:40:07;;;;;;;4.60;1.83;;;;;;;;;;5112185;28;20110;-78
2021/05/03 07:42:34;;;;;;;3.58;2.10;;;;;;;;;;5112787;28;20030;-78
2021/05/03 07:45:00;;;;;;;2.58;1.88;;;;;;;;;;5113081;28;20083;-76
2021/05/03 07:47:27;;;;;;;4.20;2.03;;;;;;;;;;5112937;28;20047;-76
2021/05/03 07:49:53;;;;;;;2.17;1.80;;;;;;;;;;5112718;27;20118;-77
2021/05/03 07:52:19;;;;;;;2.95;1.77;;;;;;;;;;5113170;28;20511;-77
2021/05/03 07:54:45;;;;;;;4.75;2.05;;;;;;;;;;5090515;28;20111;-76
2021/05/03 07:57:11;;;;;;;3.30;1.63;;;;;;;;;;5085832;28;20590;-76
2021/05/03 07:59:37;;;;;;;4.10;1.60;;;;;;;;;;5087784;28;20040;-77
2021/05/03 08:02:03;;;;;;;2.20;1.67;;;;;;;;;;5072645;28;20032;-76
2021/05/03 08:04:29;;;;;;;3.55;1.73;;;;;;;;;;5071951;28;20267;-80
2021/05/03 08:06:58;;;;;;;4.07;1.80;;;;;;;;;;5073166;28;20066;-79
2021/05/03 08:09:25;;;;;;;1.95;1.60;;;;;;;;;;5090307;28;20036;-80
2021/05/03 08:11:52;;;;;;;3.15;1.70;;;;;;;;;;5086830;28;20070;-80
2021/05/03 08:14:19;;;;;;;2.72;1.80;;;;;;;;;;5071720;28;20074;-79
2021/05/03 08:16:48;;;;;;;2.60;1.58;;;;;;;;;;5071542;28;20040;-78
2021/05/03 08:19:14;;;;;;;3.17;1.70;;;;;;;;;;5077732;28;20028;-80
2021/05/03 08:21:40;;;;;;;2.78;1.60;;;;;;;;;;5084313;28;20055;-78
2021/05/03 08:24:06;;;;;;;6.00;1.90;;;;;;;;;;5087193;28;20075;-78
2021/05/03 08:26:32;;;;;;;3.90;1.70;;;;;;;;;;5092123;28;20262;-75
2021/05/03 08:28:58;;;;;;;4.93;1.53;;;;;;;;;;5084846;28;20028;-77
2021/05/03 08:31:24;;;;;;;1.50;1.40;;;;;;;;;;5081357;28;20376;-75
2021/05/03 08:33:50;;;;;;;1.58;1.23;;;;;;;;;;5077657;28;20029;-76
2021/05/03 08:36:16;;;;;;;2.65;1.60;;;;;;;;;;5073436;28;20016;-74
2021/05/03 08:38:42;;;;;;;2.40;1.57;;;;;;;;;;5077085;28;20041;-80
2021/05/03 08:41:08;;;;;;;2.73;1.50;;;;;;;;;;5091628;28;20270;-77
2021/05/03 08:43:40;;;;;;;1.65;1.38;;;;;;;;;;5091300;28;20281;-76
2021/05/03 08:46:08;;;;;;;2.80;1.50;;;;;;;;;;5074909;28;20036;-76
2021/05/03 08:48:41;;;;;;;1.50;1.40;;;;;;;;;;5071761;28;20087;-76
2021/05/03 08:51:31;;;;;;;1.63;1.50;;;;;;;;;;5086942;28;20037;-75
2021/05/03 08:54:10;;;;;;;1.63;1.30;;;;;;;;;;5080435;28;20032;-77
2021/05/03 08:56:36;;;;;;;2.92;1.58;;;;;;;;;;5071002;28;20032;-77
2021/05/03 08:59:03;;;;;;;2.20;1.30;;;;;;;;;;5071291;28;20036;-76
2021/05/03 09:01:29;;;;;;;2.00;1.35;;;;;;;;;;5070812;28;20035;-77
2021/05/03 09:03:55;;;;;;;2.85;1.58;;;;;;;;;;5074770;28;20024;-78
2021/05/03 09:06:21;;;;;;;2.28;1.60;;;;;;;;;;5091217;28;20016;-77
2021/05/03 09:08:59;;;;;;;1.97;1.40;;;;;;;;;;5089440;28;20431;-78
2021/05/03 09:11:26;;;;;;;1.45;1.35;;;;;;;;;;5078840;28;20123;-77
2021/05/03 09:13:52;;;;;;;1.67;1.45;;;;;;;;;;5090801;28;20031;-77
2021/05/03 09:16:22;;;;;;;1.58;1.48;;;;;;;;;;5091071;28;20028;-79
2021/05/03 09:18:48;;;;;;;1.52;1.25;;;;;;;;;;5089593;28;20556;-78
2021/05/03 09:21:26;;;;;;;2.28;1.50;;;;;;;;;;5071609;28;20112;-78
2021/05/03 09:24:08;;;;;;;1.25;1.05;;;;;;;;;;5072949;28;20032;-76
2021/05/03 09:26:56;;;;;;;1.52;1.35;;;;;;;;;;5071440;28;20021;-78
2021/05/03 09:29:34;;;;;;;2.15;1.50;;;;;;;;;;5079882;28;20103;-78
2021/05/03 09:32:14;;;;;;;1.40;1.30;;;;;;;;;;5074172;28;20033;-77
2021/05/03 09:34:45;;;;;;;2.05;1.55;;;;;;;;;;5091327;28;20529;-78
2021/05/03 09:37:16;;;;;;;1.35;1.33;;;;;;;;;;5084907;28;20036;-75
2021/05/03 09:39:43;;;;;;;1.42;1.33;;;;;;;;;;5081559;28;20055;-77
2021/05/03 09:42:09;;;;;;;1.50;1.40;;;;;;;;;;5078191;28;20036;-77
2021/05/03 09:44:35;;;;;;;1.65;1.48;;;;;;;;;;5086975;28;20098;-78
2021/05/03 09:47:01;;;;;;;1.35;1.30;;;;;;;;;;5071311;28;20079;-79
2021/05/03 09:49:28;;;;;;;2.45;1.63;;;;;;;;;;5096272;28;20082;-77
2021/05/03 09:51:56;;;;;;;;;;;;;;;;;;5090204;28;20044;-73
2021/05/03 09:54:29;;;;;;;7.80;2.00;;;;;;;;;;5073421;28;20002;-74
2021/05/03 09:56:55;;;;;;;9.55;2.08;;;;;;;;;;5105908;28;20031;-76
2021/05/03 09:59:25;;;;;;;8.30;2.20;;;;;;;;;;5103530;28;20028;-73
2021/05/03 10:02:07;;;;;;;6.93;2.20;;;;;;;;;;5090227;28;20478;-75
2021/05/03 10:04:34;;;;;;;5.78;2.30;;;;;;;;;;5101744;28;20512;-74
2021/05/03 10:07:00;;;;;;;;;;;;;;;;;;5084878;28;20024;-75
2021/05/03 10:09:27;;;;;;;3.88;2.00;;;;;;;;;;5076278;28;19915;-74
2021/05/03 10:11:54;;;;;;;6.20;1.92;;;;;;;;;;5070071;28;20016;-74
2021/05/03 10:14:20;;;;;;;3.15;1.80;;;;;;;;;;5069797;28;20036;-74
2021/05/03 10:16:47;;;;;;;7.68;2.30;;;;;;;;;;5083765;28;20488;-74
2021/05/03 10:19:14;;;;;;;6.28;2.45;;;;;;;;;;5075093;28;20032;-73
2021/05/03 10:21:43;;;;;;;7.75;2.15;;;;;;;;;;5070909;28;20552;-75
2021/05/03 10:24:09;;;;;;;12.95;2.65;;;;;;;;;;5070905;28;20041;-77
2021/05/03 10:26:35;;;;;;;5.10;2.10;;;;;;;;;;5091046;28;20108;-77
2021/05/03 10:29:02;;;;;;;11.63;2.40;;;;;;;;;;5102762;28;20508;-75
2021/05/03 10:31:28;;;;;;;6.25;2.13;;;;;;;;;;5105816;28;20019;-75
2021/05/03 10:33:55;;;;;;;5.47;2.47;;;;;;;;;;5089803;28;20075;-83
2021/05/03 10:36:31;;;;;;;4.07;2.13;;;;;;;;;;5090077;28;20254;-85
2021/05/03 10:38:57;;;;;;;4.55;2.30;;;;;;;;;;5092601;28;20036;-79
2021/05/03 10:41:24;;;;;;;4.30;2.20;;;;;;;;;;5103195;28;20438;-79
2021/05/03 10:43:52;;;;;;;4.90;2.10;;;;;;;;;;5103464;28;20118;-77
2021/05/03 10:49:21;;;;;;;7.20;2.13;;;;;;;;;;5102884;28;20144;-74
2021/05/03 10:56:49;;;;;;;7.87;2.23;;;;;;;;;;5091102;28;20036;-75
2021/05/03 10:59:16;;;;;;;11.40;2.38;;;;;;;;;;5092977;28;20024;-76
2021/05/03 11:01:54;;;;;;;8.48;2.03;;;;;;;;;;5092443;28;20056;-74
2021/05/03 11:04:21;;;;;;;6.57;2.30;;;;;;;;;;5093411;28;20040;-76
2021/05/03 11:06:47;;;;;;;6.55;2.35;;;;;;;;;;5093173;28;20028;-76
2021/05/03 11:09:29;;;;;;;5.40;2.07;;;;;;;;;;5093029;28;20028;-76
2021/05/03 11:11:55;;;;;;;3.42;2.20;;;;;;;;;;5091049;28;20024;-80
2021/05/03 11:14:22;;;;;;;4.28;2.08;;;;;;;;;;5073367;28;20041;-77
2021/05/03 11:17:12;;;;;;;5.47;1.95;;;;;;;;;;5085623;28;20079;-72
2021/05/03 11:19:51;;;;;;;4.10;2.13;;;;;;;;;;5103284;28;20546;-73
2021/05/03 11:22:20;;;;;;;3.65;1.88;;;;;;;;;;5084256;28;20716;-73
2021/05/03 11:29:56;;;;;;;3.53;2.00;;;;;;;;;;5073479;28;20033;-75
2021/05/03 11:32:31;;;;;;;3.70;1.80;;;;;;;;;;5073174;28;20775;-75
2021/05/03 11:37:35;;;;;;;3.20;1.90;;;;;;;;;;5087822;28;20052;-74
2021/05/03 11:45:31;;;;;;;1.65;1.52;;;;;;;;;;5088545;28;20520;-73
2021/05/03 11:47:58;;;;;;;2.80;1.90;;;;;;;;;;5089397;28;20477;-73
2021/05/03 11:50:25;;;;;;;1.90;1.70;;;;;;;;;;5101369;28;20458;-75
2021/05/03 11:52:52;;;;;;;2.88;1.85;;;;;;;;;;5112305;28;20027;-71
2021/05/03 11:55:22;;;;;;;3.45;1.70;;;;;;;;;;5109095;27;20085;-74
2021/05/03 11:57:49;;;;;;;2.83;1.70;;;;;;;;;;5090765;28;20047;-74
2021/05/03 12:00:16;;;;;;;4.32;1.98;;;;;;;;;;5082112;28;20028;-74
2021/05/03 12:02:42;;;;;;;3.75;1.80;;;;;;;;;;5092862;28;20078;-72
2021/05/03 12:05:18;;;;;;;2.77;1.80;;;;;;;;;;5108254;27;20036;-74
2021/05/03 12:07:45;;;;;;;2.47;1.70;;;;;;;;;;5081088;28;20344;-75
2021/05/03 12:10:15;;;;;;;3.55;1.90;;;;;;;;;;5080586;28;20086;-75
2021/05/03 12:12:47;;;;;;;3.08;2.00;;;;;;;;;;5107851;28;20073;-75
2021/05/03 12:15:19;;;;;;;4.07;1.70;;;;;;;;;;5105832;27;20023;-74
2021/05/03 12:17:45;;;;;;;2.97;1.63;;;;;;;;;;5091939;28;20071;-76
2021/05/03 12:20:16;;;;;;;2.53;1.90;;;;;;;;;;5092035;28;20106;-74
2021/05/03 12:22:58;;;;;;;3.35;1.73;;;;;;;;;;5092210;28;20024;-76
2021/05/03 12:25:30;;;;;;;1.70;1.60;;;;;;;;;;5073342;28;20086;-77
2021/05/03 12:27:56;;;;;;;2.33;1.83;;;;;;;;;;5071456;28;20103;-79
2021/05/03 12:30:24;;;;;;;4.13;1.90;;;;;;;;;;5071977;28;20123;-74
2021/05/03 12:32:50;;;;;;;3.53;1.67;;;;;;;;;;5074289;28;20193;-74
2021/05/03 12:35:19;;;;;;;2.58;1.95;;;;;;;;;;5073608;28;20054;-74
2021/05/03 12:37:46;;;;;;;3.15;1.70;;;;;;;;;;5071360;28;20063;-74
2021/05/03 12:40:22;;;;;;;2.42;1.60;;;;;;;;;;5070685;28;20021;-74
2021/05/03 12:42:50;;;;;;;1.67;1.58;;;;;;;;;;5080791;28;20024;-75
2021/05/03 12:45:48;;;;;;;2.38;1.77;;;;;;;;;;5091437;28;20044;-74
2021/05/03 12:48:30;;;;;;;3.33;1.75;;;;;;;;;;5090887;28;20051;-74
2021/05/03 12:56:42;;;;;;;2.33;1.60;;;;;;;;;;5091699;28;20020;-73
2021/05/03 13:04:30;;;;;;;1.85;1.52;;;;;;;;;;5090302;28;20028;-74
2021/05/03 13:09:58;;;;;;;3.42;1.70;;;;;;;;;;5091114;28;20047;-75
2021/05/03 13:29:11;;;;;;;2.20;1.70;;;;;;;;;;5090682;28;20597;-75
2021/05/03 13:31:37;;;;;;;2.25;1.60;;;;;;;;;;5090528;28;20027;-74
2021/05/03 13:34:03;;;;;;;;;;;;;;;;;;5091391;28;20032;-74
2021/05/03 13:36:30;;;;;;;1.85;1.50;;;;;;;;;;5090679;28;19904;-74
2021/05/03 13:38:56;;;;;;;1.90;1.58;;;;;;;;;;5090145;28;20054;-74
2021/05/03 13:41:22;;;;;;;1.60;1.50;;;;;;;;;;5090541;28;20024;-74
2021/05/03 13:43:49;;;;;;;3.00;1.98;;;;;;;;;;5090720;28;20035;-74
2021/05/03 13:46:16;;;;;;;1.98;1.60;;;;;;;;;;5090455;28;20048;-74
2021/05/03 13:48:42;;;;;;;2.08;1.67;;;;;;;;;;5090487;28;20062;-75
2021/05/03 13:51:08;;;;;;;1.50;1.40;;;;;;;;;;5089947;28;20024;-75
2021/05/03 13:53:35;;;;;;;1.70;1.60;;;;;;;;;;5090574;28;20394;-74
2021/05/03 13:56:01;;;;;;;1.70;1.60;;;;;;;;;;5090579;28;20107;-74
2021/05/03 13:58:27;;;;;;;1.40;1.30;;;;;;;;;;5089968;28;20043;-74
2021/05/03 14:00:53;;;;;;;1.67;1.33;;;;;;;;;;5090405;28;20020;-74
2021/05/03 14:03:19;;;;;;;1.50;1.40;;;;;;;;;;5090606;28;20363;-74
2021/05/03 14:05:46;;;;;;;2.38;1.50;;;;;;;;;;5090433;28;20103;-74
2021/05/03 14:08:12;;;;;;;;;;;;;;;;;;5090789;28;20090;-74
2021/05/03 14:10:38;;;;;;;1.52;1.42;;;;;;;;;;5090204;28;19904;-75
2021/05/03 14:13:05;;;;;;;1.75;1.60;;;;;;;;;;5090271;28;20062;-75
2021/05/03 14:15:32;;;;;;;1.60;1.50;;;;;;;;;;5092797;28;20425;-75
2021/05/03 14:17:59;;;;;;;1.52;1.42;;;;;;;;;;5094300;28;20039;-74
2021/05/03 14:20:25;;;;;;;1.65;1.40;;;;;;;;;;5094675;28;20542;-74
2021/05/03 14:22:51;;;;;;;;;;;;;;;;;;5094856;28;20409;-74
2021/05/03 14:25:18;;;;;;;2.15;1.60;;;;;;;;;;5094088;28;20400;-75
2021/05/03 14:27:45;;;;;;;1.50;1.40;;;;;;;;;;5094344;28;20024;-74
2021/05/03 14:30:25;;;;;;;1.60;1.50;;;;;;;;;;5094339;28;20078;-73
2021/05/03 14:35:24;;;;;;;1.50;1.40;;;;;;;;;;5094185;28;20036;-75
2021/05/03 14:37:51;;;;;;;1.52;1.40;;;;;;;;;;5088693;28;20136;-75
2021/05/03 14:40:16;;;;;;;;;;;;;;;;;;5082299;28;20032;-76
2021/05/03 14:42:44;;;;;;;2.05;1.52;;;;;;;;;;5081396;28;19909;-76
2021/05/03 14:45:11;;;;;;;1.60;1.50;;;;;;;;;;5083843;28;20058;-78
2021/05/03 14:47:54;;;;;;;42.33;2.33;;;;;;;;;;5088870;28;20020;-77
2021/05/03 14:55:46;;;;;;;4.22;2.05;;;;;;;;;;5096424;28;20039;-78
2021/05/03 14:58:12;;;;;;;1.77;1.65;;;;;;;;;;5105848;28;20581;-76
2021/05/03 15:00:38;;;;;;;1.50;1.40;;;;;;;;;;5105288;28;20317;-76
2021/05/03 15:03:05;;;;;;;4.60;1.73;;;;;;;;;;5102173;28;20213;-78
2021/05/03 15:05:31;;;;;;;4.10;1.70;;;;;;;;;;5102830;28;20062;-79
2021/05/03 15:07:57;;;;;;;1.70;1.60;;;;;;;;;;5103730;28;20028;-78
2021/05/03 15:10:23;;;;;;;3.28;1.60;;;;;;;;;;5103132;28;20032;-78
2021/05/03 15:12:59;;;;;;;2.78;1.95;;;;;;;;;;5102786;28;20094;-79
2021/05/03 15:15:36;;;;;;;2.42;1.80;;;;;;;;;;5103285;28;20031;-78
2021/05/03 15:23:31;;;;;;;1.60;1.50;;;;;;;;;;5106751;28;20408;-79
2021/05/03 15:26:00;;;;;;;3.85;1.65;;;;;;;;;;5101028;28;20093;-79
2021/05/03 15:33:39;;;;;;;7.93;1.95;;;;;;;;;;5100996;28;20086;-80
2021/05/03 15:36:07;;;;;;;5.22;2.00;;;;;;;;;;5099661;28;20047;-79
2021/05/03 15:38:33;;;;;;;4.70;1.90;;;;;;;;;;5101757;28;20073;-78
2021/05/03 15:41:00;;;;;;;3.95;1.80;;;;;;;;;;5101621;28;20074;-78
2021/05/03 15:43:27;;;;;;;3.17;1.77;;;;;;;;;;5101685;28;20363;-77
2021/05/03 15:45:53;;;;;;;3.40;1.83;;;;;;;;;;5102483;28;20057;-79
2021/05/03 15:48:19;;;;;;;;;;;;;;;;;;5102825;28;20051;-80
2021/05/03 15:50:49;;;;;;;2.75;2.00;;;;;;;;;;5104109;28;19908;-78
2021/05/03 15:53:15;;;;;;;5.03;1.90;;;;;;;;;;5103193;28;20464;-77
2021/05/03 15:55:42;;;;;;;2.72;1.98;;;;;;;;;;5103612;28;20028;-79
2021/05/03 15:58:09;;;;;;;3.38;2.00;;;;;;;;;;5102586;28;20122;-80
2021/05/03 16:00:35;;;;;;;3.20;2.30;;;;;;;;;;5101674;28;20481;-77
2021/05/03 16:03:02;;;;;;;3.03;1.85;;;;;;;;;;5102144;28;20032;-77
2021/05/03 16:05:28;;;;;;;3.78;2.20;;;;;;;;;;5101498;28;20065;-79
2021/05/03 16:07:53;;;;;;;4.53;1.90;;;;;;;;;;5104295;28;20023;-79
2021/05/03 16:10:19;;;;;;;3.97;1.87;;;;;;;;;;5102436;28;20254;-80
2021/05/03 16:12:46;;;;;;;4.55;2.38;;;;;;;;;;5101585;28;20040;-77
2021/05/03 16:15:12;;;;;;;2.67;2.00;;;;;;;;;;5102201;28;20081;-79